sensor_id;sensor_type;location;lat;lon;timestamp;P1;durP1;ratioP1;P2;durP2;ratioP2
43670;SDS011;29267;50.906;7.248;2022-08-19T00:01:40;19.85;;;17.75;;
43670;SDS011;29267;50.906;7.248;2022-08-19T00:04:08;20.00;;;16.95;;
43670;SDS011;29267;50.906;7.248;2022-08-19T00:06:37;20.35;;;18.13;;
43670;SDS011;29267;50.906;7.248;2022-08-19T00:09:05;21.98;;;18.83;;
43670;SDS011;29267;50.906;7.248;2022-08-19T00:11:32;23.70;;;20.83;;
43670;SDS011;29267;50.906;7.248;2022-08-19T00:13:59;24.58;;;21.35;;
43670;SDS011;29267;50.906;7.248;2022-08-19T00:16:25;23.95;;;21.40;;
43670;SDS011;29267;50.906;7.248;2022-08-19T00:18:51;32.65;;;22.50;;
43670;SDS011;29267;50.906;7.248;2022-08-19T00:21:17;25.50;;;22.77;;
43670;SDS011;29267;50.906;7.248;2022-08-19T00:23:43;24.55;;;21.70;;
43670;SDS011;29267;50.906;7.248;2022-08-19T00:26:09;23.30;;;20.70;;
43670;SDS011;29267;50.906;7.248;2022-08-19T00:28:35;22.92;;;20.35;;
43670;SDS011;29267;50.906;7.248;2022-08-19T00:31:05;23.95;;;21.45;;
43670;SDS011;29267;50.906;7.248;2022-08-19T00:33:32;27.27;;;23.13;;
43670;SDS011;29267;50.906;7.248;2022-08-19T00:35:59;26.13;;;23.00;;
43670;SDS011;29267;50.906;7.248;2022-08-19T00:38:26;31.15;;;24.70;;
43670;SDS011;29267;50.906;7.248;2022-08-19T00:40:52;23.02;;;20.63;;
43670;SDS011;29267;50.906;7.248;2022-08-19T00:43:19;26.20;;;22.88;;
43670;SDS011;29267;50.906;7.248;2022-08-19T00:45:47;24.95;;;21.88;;
43670;SDS011;29267;50.906;7.248;2022-08-19T00:48:13;26.02;;;22.60;;
43670;SDS011;29267;50.906;7.248;2022-08-19T00:50:40;27.27;;;21.77;;
43670;SDS011;29267;50.906;7.248;2022-08-19T00:53:08;24.48;;;21.83;;
43670;SDS011;29267;50.906;7.248;2022-08-19T00:55:37;28.20;;;21.75;;
43670;SDS011;29267;50.906;7.248;2022-08-19T00:58:06;26.55;;;22.27;;
43670;SDS011;29267;50.906;7.248;2022-08-19T01:00:35;29.38;;;22.92;;
43670;SDS011;29267;50.906;7.248;2022-08-19T01:03:06;26.13;;;22.50;;
43670;SDS011;29267;50.906;7.248;2022-08-19T01:05:34;25.65;;;22.95;;
43670;SDS011;29267;50.906;7.248;2022-08-19T01:08:02;25.38;;;22.52;;
43670;SDS011;29267;50.906;7.248;2022-08-19T01:10:30;26.23;;;22.73;;
43670;SDS011;29267;50.906;7.248;2022-08-19T01:13:05;26.17;;;23.55;;
43670;SDS011;29267;50.906;7.248;2022-08-19T01:15:32;26.65;;;22.80;;
43670;SDS011;29267;50.906;7.248;2022-08-19T01:18:08;27.98;;;22.55;;
43670;SDS011;29267;50.906;7.248;2022-08-19T01:20:36;25.08;;;22.42;;
43670;SDS011;29267;50.906;7.248;2022-08-19T01:23:02;25.02;;;21.17;;
43670;SDS011;29267;50.906;7.248;2022-08-19T01:25:36;24.10;;;21.15;;
43670;SDS011;29267;50.906;7.248;2022-08-19T01:28:14;26.15;;;20.70;;
43670;SDS011;29267;50.906;7.248;2022-08-19T01:30:51;23.75;;;21.20;;
43670;SDS011;29267;50.906;7.248;2022-08-19T01:33:18;24.52;;;21.92;;
43670;SDS011;29267;50.906;7.248;2022-08-19T01:35:45;25.95;;;23.15;;
43670;SDS011;29267;50.906;7.248;2022-08-19T01:38:23;26.05;;;23.20;;
43670;SDS011;29267;50.906;7.248;2022-08-19T01:40:52;26.33;;;23.63;;
43670;SDS011;29267;50.906;7.248;2022-08-19T01:43:18;25.70;;;23.02;;
43670;SDS011;29267;50.906;7.248;2022-08-19T01:45:45;25.73;;;22.98;;
43670;SDS011;29267;50.906;7.248;2022-08-19T01:48:11;24.10;;;21.58;;
43670;SDS011;29267;50.906;7.248;2022-08-19T01:50:38;24.60;;;21.85;;
43670;SDS011;29267;50.906;7.248;2022-08-19T01:53:05;26.40;;;23.08;;
43670;SDS011;29267;50.906;7.248;2022-08-19T01:55:33;26.90;;;24.08;;
43670;SDS011;29267;50.906;7.248;2022-08-19T01:58:02;26.23;;;22.67;;
43670;SDS011;29267;50.906;7.248;2022-08-19T02:00:30;26.60;;;23.63;;
43670;SDS011;29267;50.906;7.248;2022-08-19T02:02:57;26.42;;;23.45;;
43670;SDS011;29267;50.906;7.248;2022-08-19T02:05:23;26.63;;;23.90;;
43670;SDS011;29267;50.906;7.248;2022-08-19T02:07:49;26.45;;;23.25;;
43670;SDS011;29267;50.906;7.248;2022-08-19T02:10:20;24.63;;;22.13;;
43670;SDS011;29267;50.906;7.248;2022-08-19T02:12:46;25.27;;;22.55;;
43670;SDS011;29267;50.906;7.248;2022-08-19T02:15:14;27.67;;;24.17;;
43670;SDS011;29267;50.906;7.248;2022-08-19T02:17:40;27.00;;;24.23;;
43670;SDS011;29267;50.906;7.248;2022-08-19T02:20:07;25.75;;;22.10;;
43670;SDS011;29267;50.906;7.248;2022-08-19T02:22:33;29.67;;;24.63;;
43670;SDS011;29267;50.906;7.248;2022-08-19T02:25:00;28.20;;;24.58;;
43670;SDS011;29267;50.906;7.248;2022-08-19T02:27:26;28.48;;;23.77;;
43670;SDS011;29267;50.906;7.248;2022-08-19T02:29:52;28.08;;;23.90;;
43670;SDS011;29267;50.906;7.248;2022-08-19T02:32:18;25.92;;;22.85;;
43670;SDS011;29267;50.906;7.248;2022-08-19T02:34:45;27.40;;;23.48;;
43670;SDS011;29267;50.906;7.248;2022-08-19T02:37:12;28.33;;;22.75;;
43670;SDS011;29267;50.906;7.248;2022-08-19T02:39:57;27.10;;;24.27;;
43670;SDS011;29267;50.906;7.248;2022-08-19T02:42:24;27.85;;;24.23;;
43670;SDS011;29267;50.906;7.248;2022-08-19T02:44:50;25.55;;;22.45;;
43670;SDS011;29267;50.906;7.248;2022-08-19T02:47:17;26.05;;;22.40;;
43670;SDS011;29267;50.906;7.248;2022-08-19T02:49:44;25.00;;;21.77;;
43670;SDS011;29267;50.906;7.248;2022-08-19T02:52:10;27.13;;;23.45;;
43670;SDS011;29267;50.906;7.248;2022-08-19T02:54:36;28.02;;;23.60;;
43670;SDS011;29267;50.906;7.248;2022-08-19T02:57:03;26.08;;;22.65;;
43670;SDS011;29267;50.906;7.248;2022-08-19T02:59:30;27.15;;;22.52;;
43670;SDS011;29267;50.906;7.248;2022-08-19T03:01:59;26.60;;;22.25;;
43670;SDS011;29267;50.906;7.248;2022-08-19T03:04:28;25.85;;;23.05;;
43670;SDS011;29267;50.906;7.248;2022-08-19T03:07:00;25.05;;;21.77;;
43670;SDS011;29267;50.906;7.248;2022-08-19T03:09:26;22.90;;;20.50;;
43670;SDS011;29267;50.906;7.248;2022-08-19T03:11:52;22.45;;;19.40;;
43670;SDS011;29267;50.906;7.248;2022-08-19T03:14:17;27.98;;;21.50;;
43670;SDS011;29267;50.906;7.248;2022-08-19T03:16:49;22.95;;;20.38;;
43670;SDS011;29267;50.906;7.248;2022-08-19T03:19:17;22.40;;;20.05;;
43670;SDS011;29267;50.906;7.248;2022-08-19T03:21:46;23.30;;;19.80;;
43670;SDS011;29267;50.906;7.248;2022-08-19T03:24:12;23.15;;;20.67;;
43670;SDS011;29267;50.906;7.248;2022-08-19T03:26:43;24.48;;;20.42;;
43670;SDS011;29267;50.906;7.248;2022-08-19T03:29:10;24.42;;;20.42;;
43670;SDS011;29267;50.906;7.248;2022-08-19T03:31:37;25.83;;;20.00;;
43670;SDS011;29267;50.906;7.248;2022-08-19T03:34:04;23.27;;;20.88;;
43670;SDS011;29267;50.906;7.248;2022-08-19T03:36:30;24.40;;;20.75;;
43670;SDS011;29267;50.906;7.248;2022-08-19T03:38:58;22.20;;;19.88;;
43670;SDS011;29267;50.906;7.248;2022-08-19T03:41:27;23.08;;;20.67;;
43670;SDS011;29267;50.906;7.248;2022-08-19T03:43:56;23.52;;;20.98;;
43670;SDS011;29267;50.906;7.248;2022-08-19T03:46:25;24.15;;;21.10;;
43670;SDS011;29267;50.906;7.248;2022-08-19T03:48:53;28.98;;;21.90;;
43670;SDS011;29267;50.906;7.248;2022-08-19T03:51:22;26.95;;;22.10;;
43670;SDS011;29267;50.906;7.248;2022-08-19T03:53:51;26.80;;;23.88;;
43670;SDS011;29267;50.906;7.248;2022-08-19T03:56:18;28.25;;;24.50;;
43670;SDS011;29267;50.906;7.248;2022-08-19T03:58:45;29.67;;;25.75;;
43670;SDS011;29267;50.906;7.248;2022-08-19T04:01:12;31.63;;;24.98;;
43670;SDS011;29267;50.906;7.248;2022-08-19T04:03:40;34.92;;;26.90;;
43670;SDS011;29267;50.906;7.248;2022-08-19T04:06:17;30.83;;;25.58;;
43670;SDS011;29267;50.906;7.248;2022-08-19T04:08:48;35.53;;;29.50;;
43670;SDS011;29267;50.906;7.248;2022-08-19T04:11:16;31.67;;;27.33;;
43670;SDS011;29267;50.906;7.248;2022-08-19T04:13:46;32.88;;;27.45;;
43670;SDS011;29267;50.906;7.248;2022-08-19T04:16:12;29.33;;;25.23;;
43670;SDS011;29267;50.906;7.248;2022-08-19T04:18:39;29.35;;;25.33;;
43670;SDS011;29267;50.906;7.248;2022-08-19T04:21:06;27.65;;;24.13;;
43670;SDS011;29267;50.906;7.248;2022-08-19T04:23:33;29.02;;;24.98;;
43670;SDS011;29267;50.906;7.248;2022-08-19T04:26:01;26.55;;;23.67;;
43670;SDS011;29267;50.906;7.248;2022-08-19T04:28:27;26.65;;;23.55;;
43670;SDS011;29267;50.906;7.248;2022-08-19T04:30:54;28.88;;;22.45;;
43670;SDS011;29267;50.906;7.248;2022-08-19T04:33:22;26.33;;;22.27;;
43670;SDS011;29267;50.906;7.248;2022-08-19T04:35:51;25.80;;;21.20;;
43670;SDS011;29267;50.906;7.248;2022-08-19T04:38:19;28.55;;;23.02;;
43670;SDS011;29267;50.906;7.248;2022-08-19T04:40:48;25.73;;;21.30;;
43670;SDS011;29267;50.906;7.248;2022-08-19T04:43:35;24.55;;;21.75;;
43670;SDS011;29267;50.906;7.248;2022-08-19T04:46:09;26.00;;;22.10;;
43670;SDS011;29267;50.906;7.248;2022-08-19T04:48:36;25.30;;;21.83;;
43670;SDS011;29267;50.906;7.248;2022-08-19T04:51:06;25.88;;;23.10;;
43670;SDS011;29267;50.906;7.248;2022-08-19T04:53:34;29.40;;;24.63;;
43670;SDS011;29267;50.906;7.248;2022-08-19T04:56:04;28.88;;;22.90;;
43670;SDS011;29267;50.906;7.248;2022-08-19T04:58:43;25.52;;;22.67;;
43670;SDS011;29267;50.906;7.248;2022-08-19T05:01:23;28.10;;;24.15;;
43670;SDS011;29267;50.906;7.248;2022-08-19T05:03:51;27.38;;;24.08;;
43670;SDS011;29267;50.906;7.248;2022-08-19T05:06:18;34.97;;;26.50;;
43670;SDS011;29267;50.906;7.248;2022-08-19T05:08:46;32.58;;;25.45;;
43670;SDS011;29267;50.906;7.248;2022-08-19T05:11:13;34.90;;;27.13;;
43670;SDS011;29267;50.906;7.248;2022-08-19T05:13:50;33.15;;;25.05;;
43670;SDS011;29267;50.906;7.248;2022-08-19T05:16:18;27.20;;;23.75;;
43670;SDS011;29267;50.906;7.248;2022-08-19T05:18:45;31.75;;;24.67;;
43670;SDS011;29267;50.906;7.248;2022-08-19T05:21:30;25.35;;;22.42;;
43670;SDS011;29267;50.906;7.248;2022-08-19T05:24:15;27.50;;;24.13;;
43670;SDS011;29267;50.906;7.248;2022-08-19T05:26:43;25.83;;;23.02;;
43670;SDS011;29267;50.906;7.248;2022-08-19T05:29:11;27.70;;;22.83;;
43670;SDS011;29267;50.906;7.248;2022-08-19T05:31:41;29.27;;;24.35;;
43670;SDS011;29267;50.906;7.248;2022-08-19T05:34:08;27.50;;;24.50;;
43670;SDS011;29267;50.906;7.248;2022-08-19T05:36:41;27.90;;;23.83;;
43670;SDS011;29267;50.906;7.248;2022-08-19T05:39:10;26.70;;;23.67;;
43670;SDS011;29267;50.906;7.248;2022-08-19T05:41:42;29.02;;;24.50;;
43670;SDS011;29267;50.906;7.248;2022-08-19T05:44:09;33.03;;;26.85;;
43670;SDS011;29267;50.906;7.248;2022-08-19T05:46:35;36.50;;;26.67;;
43670;SDS011;29267;50.906;7.248;2022-08-19T05:49:07;44.05;;;28.40;;
43670;SDS011;29267;50.906;7.248;2022-08-19T05:51:33;33.65;;;28.77;;
43670;SDS011;29267;50.906;7.248;2022-08-19T05:54:02;29.60;;;26.50;;
43670;SDS011;29267;50.906;7.248;2022-08-19T05:56:29;29.90;;;25.05;;
43670;SDS011;29267;50.906;7.248;2022-08-19T05:58:56;28.17;;;25.15;;
43670;SDS011;29267;50.906;7.248;2022-08-19T06:01:23;30.35;;;26.30;;
43670;SDS011;29267;50.906;7.248;2022-08-19T06:03:50;29.05;;;25.92;;
43670;SDS011;29267;50.906;7.248;2022-08-19T06:06:16;28.55;;;25.38;;
43670;SDS011;29267;50.906;7.248;2022-08-19T06:08:42;28.77;;;24.52;;
43670;SDS011;29267;50.906;7.248;2022-08-19T06:11:14;30.65;;;25.00;;
43670;SDS011;29267;50.906;7.248;2022-08-19T06:14:00;31.85;;;25.73;;
43670;SDS011;29267;50.906;7.248;2022-08-19T06:16:33;27.95;;;24.33;;
43670;SDS011;29267;50.906;7.248;2022-08-19T06:19:02;26.45;;;23.60;;
43670;SDS011;29267;50.906;7.248;2022-08-19T06:21:31;30.92;;;25.88;;
43670;SDS011;29267;50.906;7.248;2022-08-19T06:23:57;34.28;;;28.80;;
43670;SDS011;29267;50.906;7.248;2022-08-19T06:26:23;35.25;;;29.23;;
43670;SDS011;29267;50.906;7.248;2022-08-19T06:28:50;34.78;;;29.48;;
43670;SDS011;29267;50.906;7.248;2022-08-19T06:31:20;35.38;;;28.80;;
43670;SDS011;29267;50.906;7.248;2022-08-19T06:33:49;36.55;;;29.98;;
43670;SDS011;29267;50.906;7.248;2022-08-19T06:36:26;33.78;;;29.70;;
43670;SDS011;29267;50.906;7.248;2022-08-19T06:38:54;38.60;;;29.60;;
43670;SDS011;29267;50.906;7.248;2022-08-19T06:41:22;33.75;;;28.90;;
43670;SDS011;29267;50.906;7.248;2022-08-19T06:43:48;36.25;;;31.08;;
43670;SDS011;29267;50.906;7.248;2022-08-19T06:46:14;35.40;;;27.52;;
43670;SDS011;29267;50.906;7.248;2022-08-19T06:48:42;33.50;;;27.42;;
43670;SDS011;29267;50.906;7.248;2022-08-19T06:51:09;32.00;;;26.35;;
43670;SDS011;29267;50.906;7.248;2022-08-19T06:53:34;34.50;;;28.00;;
43670;SDS011;29267;50.906;7.248;2022-08-19T06:56:00;36.22;;;28.08;;
43670;SDS011;29267;50.906;7.248;2022-08-19T06:58:30;36.85;;;28.52;;
43670;SDS011;29267;50.906;7.248;2022-08-19T07:01:00;33.50;;;28.98;;
43670;SDS011;29267;50.906;7.248;2022-08-19T07:03:31;31.67;;;28.00;;
43670;SDS011;29267;50.906;7.248;2022-08-19T07:06:18;29.80;;;26.60;;
43670;SDS011;29267;50.906;7.248;2022-08-19T07:08:45;36.60;;;28.52;;
43670;SDS011;29267;50.906;7.248;2022-08-19T07:11:13;41.45;;;33.78;;
43670;SDS011;29267;50.906;7.248;2022-08-19T07:13:42;41.90;;;29.33;;
43670;SDS011;29267;50.906;7.248;2022-08-19T07:16:12;48.95;;;34.58;;
43670;SDS011;29267;50.906;7.248;2022-08-19T07:18:40;49.88;;;37.47;;
43670;SDS011;29267;50.906;7.248;2022-08-19T07:21:07;42.33;;;34.72;;
43670;SDS011;29267;50.906;7.248;2022-08-19T07:23:38;51.28;;;38.17;;
43670;SDS011;29267;50.906;7.248;2022-08-19T07:26:05;45.28;;;35.80;;
43670;SDS011;29267;50.906;7.248;2022-08-19T07:28:42;44.45;;;36.17;;
43670;SDS011;29267;50.906;7.248;2022-08-19T07:31:13;44.08;;;36.08;;
43670;SDS011;29267;50.906;7.248;2022-08-19T07:36:09;43.75;;;33.45;;
43670;SDS011;29267;50.906;7.248;2022-08-19T07:38:37;40.65;;;33.00;;
43670;SDS011;29267;50.906;7.248;2022-08-19T07:41:05;42.47;;;32.95;;
43670;SDS011;29267;50.906;7.248;2022-08-19T07:43:32;38.97;;;33.00;;
43670;SDS011;29267;50.906;7.248;2022-08-19T07:45:58;40.58;;;31.80;;
43670;SDS011;29267;50.906;7.248;2022-08-19T07:48:24;48.13;;;33.88;;
43670;SDS011;29267;50.906;7.248;2022-08-19T07:50:52;41.58;;;33.10;;
43670;SDS011;29267;50.906;7.248;2022-08-19T07:53:20;40.92;;;31.48;;
43670;SDS011;29267;50.906;7.248;2022-08-19T07:55:47;39.53;;;31.63;;
43670;SDS011;29267;50.906;7.248;2022-08-19T07:58:14;40.90;;;30.33;;
43670;SDS011;29267;50.906;7.248;2022-08-19T08:00:43;42.03;;;30.73;;
43670;SDS011;29267;50.906;7.248;2022-08-19T08:03:11;39.85;;;30.67;;
43670;SDS011;29267;50.906;7.248;2022-08-19T08:05:38;39.95;;;30.20;;
43670;SDS011;29267;50.906;7.248;2022-08-19T08:08:23;38.47;;;29.40;;
43670;SDS011;29267;50.906;7.248;2022-08-19T08:11:08;40.08;;;32.00;;
43670;SDS011;29267;50.906;7.248;2022-08-19T08:13:35;37.75;;;31.17;;
43670;SDS011;29267;50.906;7.248;2022-08-19T08:16:02;39.85;;;30.95;;
43670;SDS011;29267;50.906;7.248;2022-08-19T08:18:28;37.20;;;30.98;;
43670;SDS011;29267;50.906;7.248;2022-08-19T08:20:54;41.83;;;33.17;;
43670;SDS011;29267;50.906;7.248;2022-08-19T08:23:20;42.03;;;32.70;;
43670;SDS011;29267;50.906;7.248;2022-08-19T08:25:47;37.72;;;30.80;;
43670;SDS011;29267;50.906;7.248;2022-08-19T08:28:14;38.08;;;29.58;;
43670;SDS011;29267;50.906;7.248;2022-08-19T08:30:41;38.95;;;32.03;;
43670;SDS011;29267;50.906;7.248;2022-08-19T08:33:08;40.55;;;31.58;;
43670;SDS011;29267;50.906;7.248;2022-08-19T08:35:35;33.60;;;27.88;;
43670;SDS011;29267;50.906;7.248;2022-08-19T08:38:02;42.08;;;30.67;;
43670;SDS011;29267;50.906;7.248;2022-08-19T08:40:31;39.33;;;30.45;;
43670;SDS011;29267;50.906;7.248;2022-08-19T08:45:52;40.20;;;29.08;;
43670;SDS011;29267;50.906;7.248;2022-08-19T08:51:20;33.53;;;26.55;;
43670;SDS011;29267;50.906;7.248;2022-08-19T08:53:53;32.72;;;26.52;;
43670;SDS011;29267;50.906;7.248;2022-08-19T08:56:20;32.17;;;24.98;;
43670;SDS011;29267;50.906;7.248;2022-08-19T09:01:56;29.00;;;21.75;;
43670;SDS011;29267;50.906;7.248;2022-08-19T09:04:21;33.75;;;21.02;;
43670;SDS011;29267;50.906;7.248;2022-08-19T09:14:45;25.67;;;19.15;;
43670;SDS011;29267;50.906;7.248;2022-08-19T09:17:13;24.35;;;18.80;;
43670;SDS011;29267;50.906;7.248;2022-08-19T09:22:18;21.20;;;16.02;;
43670;SDS011;29267;50.906;7.248;2022-08-19T09:24:50;23.33;;;14.85;;
43670;SDS011;29267;50.906;7.248;2022-08-19T09:27:19;19.80;;;14.18;;
43670;SDS011;29267;50.906;7.248;2022-08-19T09:29:48;16.50;;;13.65;;
43670;SDS011;29267;50.906;7.248;2022-08-19T09:32:15;17.80;;;13.70;;
43670;SDS011;29267;50.906;7.248;2022-08-19T09:34:43;11.93;;;10.27;;
43670;SDS011;29267;50.906;7.248;2022-08-19T09:37:09;12.45;;;9.30;;
43670;SDS011;29267;50.906;7.248;2022-08-19T09:39:35;17.15;;;11.38;;
43670;SDS011;29267;50.906;7.248;2022-08-19T09:42:01;19.10;;;12.65;;
43670;SDS011;29267;50.906;7.248;2022-08-19T09:44:28;17.77;;;11.32;;
43670;SDS011;29267;50.906;7.248;2022-08-19T09:46:54;19.20;;;13.32;;
43670;SDS011;29267;50.906;7.248;2022-08-19T09:49:21;15.98;;;13.75;;
43670;SDS011;29267;50.906;7.248;2022-08-19T09:51:50;20.23;;;14.50;;
43670;SDS011;29267;50.906;7.248;2022-08-19T09:54:17;21.08;;;13.40;;
43670;SDS011;29267;50.906;7.248;2022-08-19T09:56:43;22.42;;;17.23;;
43670;SDS011;29267;50.906;7.248;2022-08-19T09:59:09;24.23;;;14.68;;
43670;SDS011;29267;50.906;7.248;2022-08-19T10:01:37;22.52;;;17.30;;
43670;SDS011;29267;50.906;7.248;2022-08-19T10:04:03;23.77;;;15.70;;
43670;SDS011;29267;50.906;7.248;2022-08-19T10:06:36;21.38;;;16.38;;
43670;SDS011;29267;50.906;7.248;2022-08-19T10:09:04;24.15;;;17.77;;
43670;SDS011;29267;50.906;7.248;2022-08-19T10:11:36;23.48;;;17.58;;
43670;SDS011;29267;50.906;7.248;2022-08-19T10:14:04;24.40;;;17.92;;
43670;SDS011;29267;50.906;7.248;2022-08-19T10:16:30;23.38;;;18.25;;
43670;SDS011;29267;50.906;7.248;2022-08-19T10:18:57;29.58;;;20.75;;
43670;SDS011;29267;50.906;7.248;2022-08-19T10:21:25;27.95;;;20.55;;
43670;SDS011;29267;50.906;7.248;2022-08-19T10:23:58;31.25;;;19.17;;
43670;SDS011;29267;50.906;7.248;2022-08-19T10:26:31;29.35;;;22.40;;
43670;SDS011;29267;50.906;7.248;2022-08-19T10:29:02;35.40;;;26.13;;
43670;SDS011;29267;50.906;7.248;2022-08-19T10:31:30;27.48;;;22.20;;
43670;SDS011;29267;50.906;7.248;2022-08-19T10:33:57;26.50;;;20.80;;
43670;SDS011;29267;50.906;7.248;2022-08-19T10:36:31;28.98;;;22.38;;
43670;SDS011;29267;50.906;7.248;2022-08-19T10:39:00;29.25;;;22.75;;
43670;SDS011;29267;50.906;7.248;2022-08-19T10:41:31;31.10;;;22.63;;
43670;SDS011;29267;50.906;7.248;2022-08-19T10:43:59;30.80;;;23.58;;
43670;SDS011;29267;50.906;7.248;2022-08-19T10:46:27;33.08;;;23.63;;
43670;SDS011;29267;50.906;7.248;2022-08-19T10:48:57;31.92;;;23.33;;
43670;SDS011;29267;50.906;7.248;2022-08-19T10:51:24;26.95;;;22.48;;
43670;SDS011;29267;50.906;7.248;2022-08-19T10:54:08;31.75;;;21.45;;
43670;SDS011;29267;50.906;7.248;2022-08-19T10:56:35;32.55;;;25.90;;
43670;SDS011;29267;50.906;7.248;2022-08-19T10:59:27;31.25;;;22.90;;
43670;SDS011;29267;50.906;7.248;2022-08-19T11:01:58;34.05;;;24.02;;
43670;SDS011;29267;50.906;7.248;2022-08-19T11:04:25;25.27;;;19.40;;
43670;SDS011;29267;50.906;7.248;2022-08-19T11:06:51;29.60;;;19.98;;
43670;SDS011;29267;50.906;7.248;2022-08-19T11:09:18;26.23;;;21.35;;
43670;SDS011;29267;50.906;7.248;2022-08-19T11:11:49;24.05;;;19.15;;
43670;SDS011;29267;50.906;7.248;2022-08-19T11:14:16;22.75;;;17.73;;
43670;SDS011;29267;50.906;7.248;2022-08-19T11:16:46;22.65;;;16.40;;
43670;SDS011;29267;50.906;7.248;2022-08-19T11:19:13;20.17;;;15.70;;
43670;SDS011;29267;50.906;7.248;2022-08-19T11:21:45;29.45;;;18.25;;
43670;SDS011;29267;50.906;7.248;2022-08-19T11:24:17;22.33;;;15.75;;
43670;SDS011;29267;50.906;7.248;2022-08-19T11:26:45;21.67;;;14.63;;
43670;SDS011;29267;50.906;7.248;2022-08-19T11:29:14;22.35;;;14.52;;
43670;SDS011;29267;50.906;7.248;2022-08-19T11:31:44;17.23;;;13.98;;
43670;SDS011;29267;50.906;7.248;2022-08-19T11:34:12;18.27;;;14.60;;
43670;SDS011;29267;50.906;7.248;2022-08-19T11:36:42;19.45;;;12.68;;
43670;SDS011;29267;50.906;7.248;2022-08-19T11:39:10;15.02;;;12.15;;
43670;SDS011;29267;50.906;7.248;2022-08-19T11:41:38;16.80;;;13.55;;
43670;SDS011;29267;50.906;7.248;2022-08-19T11:44:04;15.98;;;12.75;;
43670;SDS011;29267;50.906;7.248;2022-08-19T11:46:33;19.90;;;15.38;;
43670;SDS011;29267;50.906;7.248;2022-08-19T11:49:01;17.60;;;13.95;;
43670;SDS011;29267;50.906;7.248;2022-08-19T11:51:28;21.23;;;13.43;;
43670;SDS011;29267;50.906;7.248;2022-08-19T11:53:55;19.88;;;13.45;;
43670;SDS011;29267;50.906;7.248;2022-08-19T11:56:23;16.95;;;12.40;;
43670;SDS011;29267;50.906;7.248;2022-08-19T11:58:50;20.20;;;13.00;;
43670;SDS011;29267;50.906;7.248;2022-08-19T12:01:18;22.00;;;13.55;;
43670;SDS011;29267;50.906;7.248;2022-08-19T12:03:46;16.80;;;14.55;;
43670;SDS011;29267;50.906;7.248;2022-08-19T12:06:17;18.95;;;15.05;;
43670;SDS011;29267;50.906;7.248;2022-08-19T12:08:48;22.65;;;13.50;;
43670;SDS011;29267;50.906;7.248;2022-08-19T12:11:14;16.58;;;11.35;;
43670;SDS011;29267;50.906;7.248;2022-08-19T12:13:41;20.85;;;13.25;;
43670;SDS011;29267;50.906;7.248;2022-08-19T12:16:10;19.63;;;13.68;;
43670;SDS011;29267;50.906;7.248;2022-08-19T12:18:47;16.50;;;13.65;;
43670;SDS011;29267;50.906;7.248;2022-08-19T12:21:15;19.52;;;13.75;;
43670;SDS011;29267;50.906;7.248;2022-08-19T12:23:43;24.50;;;15.77;;
43670;SDS011;29267;50.906;7.248;2022-08-19T12:26:10;20.20;;;13.88;;
43670;SDS011;29267;50.906;7.248;2022-08-19T12:28:37;19.38;;;14.45;;
43670;SDS011;29267;50.906;7.248;2022-08-19T12:31:03;19.50;;;14.82;;
43670;SDS011;29267;50.906;7.248;2022-08-19T12:33:30;21.58;;;15.20;;
43670;SDS011;29267;50.906;7.248;2022-08-19T12:36:00;14.98;;;12.75;;
43670;SDS011;29267;50.906;7.248;2022-08-19T12:38:28;15.60;;;13.25;;
43670;SDS011;29267;50.906;7.248;2022-08-19T12:40:54;23.27;;;13.05;;
43670;SDS011;29267;50.906;7.248;2022-08-19T12:43:20;14.43;;;11.90;;
43670;SDS011;29267;50.906;7.248;2022-08-19T12:45:46;15.65;;;11.60;;
43670;SDS011;29267;50.906;7.248;2022-08-19T12:48:12;13.02;;;10.63;;
43670;SDS011;29267;50.906;7.248;2022-08-19T12:50:39;11.20;;;9.32;;
43670;SDS011;29267;50.906;7.248;2022-08-19T12:53:06;14.55;;;10.98;;
43670;SDS011;29267;50.906;7.248;2022-08-19T12:55:32;17.27;;;9.80;;
43670;SDS011;29267;50.906;7.248;2022-08-19T12:57:57;12.23;;;9.65;;
43670;SDS011;29267;50.906;7.248;2022-08-19T13:00:25;13.43;;;9.68;;
43670;SDS011;29267;50.906;7.248;2022-08-19T13:02:52;12.68;;;9.50;;
43670;SDS011;29267;50.906;7.248;2022-08-19T13:05:19;12.32;;;11.02;;
43670;SDS011;29267;50.906;7.248;2022-08-19T13:07:48;13.13;;;9.77;;
43670;SDS011;29267;50.906;7.248;2022-08-19T13:10:16;16.50;;;9.80;;
43670;SDS011;29267;50.906;7.248;2022-08-19T13:12:45;16.60;;;10.38;;
43670;SDS011;29267;50.906;7.248;2022-08-19T13:15:13;10.25;;;9.18;;
43670;SDS011;29267;50.906;7.248;2022-08-19T13:17:45;12.45;;;10.10;;
43670;SDS011;29267;50.906;7.248;2022-08-19T13:20:14;10.95;;;9.45;;
43670;SDS011;29267;50.906;7.248;2022-08-19T13:22:41;10.77;;;9.07;;
43670;SDS011;29267;50.906;7.248;2022-08-19T13:25:07;16.65;;;9.20;;
43670;SDS011;29267;50.906;7.248;2022-08-19T13:27:34;13.90;;;7.43;;
43670;SDS011;29267;50.906;7.248;2022-08-19T13:30:01;8.75;;;6.63;;
43670;SDS011;29267;50.906;7.248;2022-08-19T13:32:46;9.75;;;7.50;;
43670;SDS011;29267;50.906;7.248;2022-08-19T13:35:31;12.93;;;9.07;;
43670;SDS011;29267;50.906;7.248;2022-08-19T13:37:57;12.68;;;8.10;;
43670;SDS011;29267;50.906;7.248;2022-08-19T13:40:29;10.50;;;8.32;;
43670;SDS011;29267;50.906;7.248;2022-08-19T13:42:56;8.40;;;7.45;;
43670;SDS011;29267;50.906;7.248;2022-08-19T13:45:23;12.50;;;7.70;;
43670;SDS011;29267;50.906;7.248;2022-08-19T13:47:50;15.35;;;7.55;;
43670;SDS011;29267;50.906;7.248;2022-08-19T13:50:23;12.10;;;8.52;;
43670;SDS011;29267;50.906;7.248;2022-08-19T13:52:52;13.93;;;8.65;;
43670;SDS011;29267;50.906;7.248;2022-08-19T13:55:19;17.25;;;11.02;;
43670;SDS011;29267;50.906;7.248;2022-08-19T13:57:46;14.80;;;10.45;;
43670;SDS011;29267;50.906;7.248;2022-08-19T14:00:15;16.40;;;9.70;;
43670;SDS011;29267;50.906;7.248;2022-08-19T14:02:43;12.75;;;9.40;;
43670;SDS011;29267;50.906;7.248;2022-08-19T14:05:11;13.38;;;9.13;;
43670;SDS011;29267;50.906;7.248;2022-08-19T14:07:38;12.90;;;9.85;;
43670;SDS011;29267;50.906;7.248;2022-08-19T14:10:05;13.20;;;9.38;;
43670;SDS011;29267;50.906;7.248;2022-08-19T14:12:34;13.57;;;8.15;;
43670;SDS011;29267;50.906;7.248;2022-08-19T14:15:01;10.98;;;7.50;;
43670;SDS011;29267;50.906;7.248;2022-08-19T14:17:29;10.50;;;8.65;;
43670;SDS011;29267;50.906;7.248;2022-08-19T14:19:56;12.88;;;8.40;;
43670;SDS011;29267;50.906;7.248;2022-08-19T14:22:22;13.93;;;8.43;;
43670;SDS011;29267;50.906;7.248;2022-08-19T14:24:48;11.80;;;8.63;;
43670;SDS011;29267;50.906;7.248;2022-08-19T14:27:15;10.60;;;8.93;;
43670;SDS011;29267;50.906;7.248;2022-08-19T14:29:41;18.63;;;8.95;;
43670;SDS011;29267;50.906;7.248;2022-08-19T14:32:07;12.05;;;8.02;;
43670;SDS011;29267;50.906;7.248;2022-08-19T14:34:34;11.88;;;8.32;;
43670;SDS011;29267;50.906;7.248;2022-08-19T14:37:07;12.57;;;8.55;;
43670;SDS011;29267;50.906;7.248;2022-08-19T14:39:43;11.88;;;7.55;;
43670;SDS011;29267;50.906;7.248;2022-08-19T14:42:12;8.38;;;6.57;;
43670;SDS011;29267;50.906;7.248;2022-08-19T14:44:39;9.82;;;7.50;;
43670;SDS011;29267;50.906;7.248;2022-08-19T14:47:06;9.52;;;7.43;;
43670;SDS011;29267;50.906;7.248;2022-08-19T14:49:32;8.43;;;6.80;;
43670;SDS011;29267;50.906;7.248;2022-08-19T14:51:58;10.50;;;6.82;;
43670;SDS011;29267;50.906;7.248;2022-08-19T14:54:24;13.98;;;7.35;;